Portada
METAR-TAF:

METAR-TAF

Aeropuertos :

Maracaibo, Venezuela

Aeropuerto Internacional de La Chinita

latitud: 10-34N, longitud: 071-44W, altitud: 66 m

Observación

El informe se hizo hace 3 horas y 0 minutos, a las 23:00 UTC
Temperatura 30°C
Humedad 75%
Presión 1010 hPa
Visibilidad 10 km o más
Escasas nubes a una altura de 1600 ft
Cielo nuboso a una altura de 7000 ft

METAR: SVMC 272300Z /////KT 9999 FEW016 BKN070 30/25 Q1010

Hora: 22:00 (02:00 UTC)

Pronóstico

El informe se hizo hace 4 horas y 0 minutos, a las 22:00 UTC
Pronóstico válido del 28 a las 00 UTC al 29 a las 00 UTC
Viento 12 kt del norte
Visibilidad 10 km o más
Escasas nubes a una altura de 1600 ft
Evolucionando progresivamente
del 28 a las 00 UTC al 28 a las 04 UTC
Viento 5 kt del norte-noroeste
Nubes dispersas a una altura de 1600 ft

TAF: SVMC 272200Z 2800/2900 36012KT 9999 FEW016 TX35/18Z TN27/09Z BECMG 2800/2804 34005KT SCT016

Observaciones y pronósticos meteorológicos de más de 4000 aeropuertos (mensajes METAR y TAF).

Los puntos amarillos y rojos representan las estaciones disponibles.

Ponga el ratón en el punto deseado para ver el nombre de la estación.

Haga clic para ver las observaciones y los pronósticos meteorológicos.

Para cambiar el mapa : haga clic en los botones verdes con una cruz de color negro para hacer un zoom, en el botón verde con un guión para alejar o en las flechas verdes para mapas adyacentes.


METAR-TAF: